Time;durP1;ratioP1;P1;durP2;ratioP2;P2;SDS_P1;SDS_P2;PMS_P1;PMS_P2;Temp;Humidity;BMP_temperature;BMP_pressure;BME280_temperature;BME280_humidity;BME280_pressure;Samples;Min_cycle;Max_cycle;Signal;HPM_P1;HPM_P2
2022/02/02 00:04:45;;;;;;;;;;;1.00;61.70;;;;;;5028368;28;19936;-80
2022/02/02 00:10:13;;;;;;;;;;;1.00;61.70;;;;;;5039688;28;19921;-77
2022/02/02 00:12:44;;;;;;;;;;;1.00;61.70;;;;;;5012361;28;20029;-76
2022/02/02 00:23:29;;;;;;;;;;;0.80;62.20;;;;;;5028223;28;20380;-80
2022/02/02 00:26:07;;;;;;;;;;;0.70;62.20;;;;;;5015454;28;19928;-76
2022/02/02 00:28:38;;;;;;;;;;;0.70;62.30;;;;;;5026188;28;20333;-76
2022/02/02 00:31:08;;;;;;;;;;;0.80;62.10;;;;;;5029795;28;19921;-77
2022/02/02 00:33:49;;;;;;;;;;;0.80;62.00;;;;;;5018773;28;19967;-80
2022/02/02 00:36:20;;;;;;;;;;;0.80;62.10;;;;;;5013073;28;19932;-80
2022/02/02 00:38:46;;;;;;;;;;;0.70;62.00;;;;;;5025915;28;19931;-80
2022/02/02 00:41:13;;;;;;;;;;;0.70;62.10;;;;;;5017438;28;19921;-76
2022/02/02 00:43:41;;;;;;;;;;;0.70;62.00;;;;;;5022028;28;19979;-76
2022/02/02 00:46:07;;;;;;;;;;;0.70;62.00;;;;;;5019781;28;19968;-80
2022/02/02 00:48:34;;;;;;;;;;;0.70;61.50;;;;;;5012685;28;19922;-80
2022/02/02 00:51:00;;;;;;;;;;;0.70;62.10;;;;;;4995386;28;19921;-81
2022/02/02 00:53:26;;;;;;;;;;;0.60;62.30;;;;;;5024054;28;20007;-80
2022/02/02 00:55:54;;;;;;;;;;;0.50;62.50;;;;;;5025420;28;20302;-76
2022/02/02 01:01:04;;;;;;;;;;;0.50;62.10;;;;;;5026678;28;19936;-80
2022/02/02 01:03:31;;;;;;;;;;;0.60;62.30;;;;;;5010531;28;19921;-80
2022/02/02 01:05:57;;;;;;;;;;;0.60;62.10;;;;;;5014045;28;19921;-80
2022/02/02 01:15:00;;;;;;;;;;;0.60;62.20;;;;;;5016200;28;20013;-77
2022/02/02 01:27:46;;;;;;;;;;;0.50;62.30;;;;;;5023093;28;20317;-80
2022/02/02 01:27:55;;;;;;;;;;;0.50;62.20;;;;;;5025785;28;19979;-80
2022/02/02 01:30:23;;;;;;;;;;;0.50;62.20;;;;;;5015974;28;20000;-80
2022/02/02 01:32:50;;;;;;;;;;;0.50;62.40;;;;;;5016090;28;19928;-80
2022/02/02 01:35:17;;;;;;;;;;;0.50;62.20;;;;;;5014620;28;19921;-81
2022/02/02 01:37:48;;;;;;;;;;;0.50;62.20;;;;;;5014714;28;19921;-79
2022/02/02 01:43:09;;;;;;;;;;;0.40;62.40;;;;;;5014444;28;19921;-76
2022/02/02 01:48:12;;;;;;;;;;;0.40;61.90;;;;;;5016038;28;20008;-80
2022/02/02 01:55:57;;;;;;;;;;;0.40;62.50;;;;;;5014469;28;19921;-80
2022/02/02 02:01:08;;;;;;;;;;;0.30;62.50;;;;;;5021249;28;20002;-76
2022/02/02 02:03:35;;;;;;;;;;;0.30;62.50;;;;;;5040912;28;20394;-80
2022/02/02 02:06:02;;;;;;;;;;;0.30;62.60;;;;;;4998175;28;19922;-81
2022/02/02 02:08:28;;;;;;;;;;;0.20;62.10;;;;;;5014521;28;19921;-79
2022/02/02 02:10:54;;;;;;;;;;;0.20;62.80;;;;;;5014409;28;19971;-76
2022/02/02 02:16:05;;;;;;;;;;;0.20;62.80;;;;;;5023142;28;19929;-80
2022/02/02 02:18:31;;;;;;;;;;;0.10;62.60;;;;;;5014375;28;19921;-76
2022/02/02 02:20:57;;;;;;;;;;;0.20;62.10;;;;;;5005454;28;19921;-80
2022/02/02 02:23:25;;;;;;;;;;;0.20;62.80;;;;;;5021368;28;19921;-80
2022/02/02 02:25:51;;;;;;;;;;;0.10;62.10;;;;;;5040488;28;20293;-80
2022/02/02 02:28:34;;;;;;;;;;;0.10;62.20;;;;;;5023774;28;19924;-79
2022/02/02 02:31:09;;;;;;;;;;;0.10;62.60;;;;;;5012739;28;19963;-77
2022/02/02 02:58:18;;;;;;;;;;;0.30;61.80;;;;;;5017801;28;20039;-76
2022/02/02 03:51:04;;;;;;;;;;;-0.10;62.90;;;;;;5012809;28;19929;-77
2022/02/02 04:04:07;;;;;;;;;;;-0.10;62.90;;;;;;5025070;28;20382;-76
2022/02/02 04:06:43;;;;;;;;;;;0.00;62.80;;;;;;5016002;28;19922;-77
2022/02/02 04:09:09;;;;;;;;;;;0.00;62.70;;;;;;5028864;28;19967;-77
2022/02/02 04:11:45;;;;;;;;;;;0.00;62.70;;;;;;4991551;28;20022;-76
2022/02/02 04:15:13;;;;;;;;;;;-0.10;62.90;;;;;;5020124;28;19921;-76
2022/02/02 04:58:09;;;;;;;;;;;-0.20;62.10;;;;;;5016960;28;20309;-80
2022/02/02 05:06:34;;;;;;;;;;;-0.10;62.10;;;;;;5027042;28;19921;-77
2022/02/02 05:09:19;;;;;;;;;;;-0.20;63.00;;;;;;5024327;28;19928;-80
2022/02/02 05:17:16;;;;;;;;;;;-0.20;62.70;;;;;;5028465;28;20020;-80
2022/02/02 05:53:49;;;;;;;;;;;-0.20;62.40;;;;;;5029739;28;20373;-80
2022/02/02 05:56:15;;;;;;;;;;;-0.20;62.90;;;;;;5000714;28;19928;-79
2022/02/02 05:58:44;;;;;;;;;;;-0.30;63.00;;;;;;5014544;28;19964;-77
2022/02/02 06:01:11;;;;;;;;;;;-0.20;63.10;;;;;;5015599;28;20363;-78
2022/02/02 06:03:50;;;;;;;;;;;-0.30;63.20;;;;;;4996520;28;19932;-80
2022/02/02 06:06:16;;;;;;;;;;;-0.30;63.30;;;;;;5027887;28;19921;-80
2022/02/02 06:08:44;;;;;;;;;;;-0.30;62.60;;;;;;5015608;28;19917;-77
2022/02/02 06:11:28;;;;;;;;;;;-0.40;63.00;;;;;;5014944;28;20329;-77
2022/02/02 06:13:57;;;;;;;;;;;-0.30;63.10;;;;;;5031253;28;20024;-77
2022/02/02 06:16:26;;;;;;;;;;;-0.40;62.40;;;;;;5032676;28;19920;-79
2022/02/02 06:18:57;;;;;;;;;;;-0.30;62.80;;;;;;5012791;28;19975;-80
2022/02/02 06:21:42;;;;;;;;;;;-0.30;62.90;;;;;;5015373;28;19971;-77
2022/02/02 06:24:10;;;;;;;;;;;-0.30;62.80;;;;;;4997911;28;19925;-80
2022/02/02 06:26:38;;;;;;;;;;;-0.30;62.80;;;;;;4999757;28;19947;-80
2022/02/02 06:29:07;;;;;;;;;;;-0.30;62.70;;;;;;5017935;28;20007;-77
2022/02/02 06:31:35;;;;;;;;;;;-0.20;62.50;;;;;;5024927;28;19921;-77
2022/02/02 06:34:03;;;;;;;;;;;-0.20;62.50;;;;;;4999739;28;19921;-77
2022/02/02 06:36:33;;;;;;;;;;;-0.10;62.40;;;;;;5018623;28;19928;-80
2022/02/02 06:38:59;;;;;;;;;;;-0.10;62.30;;;;;;5040520;28;19929;-81
2022/02/02 06:41:26;;;;;;;;;;;0.00;62.20;;;;;;5014533;28;19925;-77
2022/02/02 06:46:40;;;;;;;;;;;0.00;62.30;;;;;;5021023;28;20302;-80
2022/02/02 06:49:06;;;;;;;;;;;0.10;61.60;;;;;;5004455;28;20465;-77
2022/02/02 06:54:59;;;;;;;;;;;0.10;61.50;;;;;;5019610;28;19928;-80
2022/02/02 06:58:09;;;;;;;;;;;0.20;62.00;;;;;;5030625;28;19947;-80
2022/02/02 07:00:48;;;;;;;;;;;0.20;62.00;;;;;;5030438;28;19927;-77
2022/02/02 07:11:25;;;;;;;;;;;0.50;61.70;;;;;;5014840;28;19924;-81
2022/02/02 07:14:17;;;;;;;;;;;0.60;61.70;;;;;;5023490;28;19928;-77
2022/02/02 07:16:50;;;;;;;;;;;0.60;61.70;;;;;;5029738;28;20023;-80
2022/02/02 07:22:20;;;;;;;;;;;0.80;61.70;;;;;;5011963;28;20389;-78
2022/02/02 07:27:53;;;;;;;;;;;0.90;61.70;;;;;;5012545;28;20004;-80
2022/02/02 07:30:41;;;;;;;;;;;0.90;61.70;;;;;;5014294;28;19927;-77
2022/02/02 07:33:14;;;;;;;;;;;0.90;61.10;;;;;;5014338;28;19951;-80
2022/02/02 07:36:01;;;;;;;;;;;0.90;61.70;;;;;;4996145;28;19921;-77
2022/02/02 07:38:35;;;;;;;;;;;1.00;61.70;;;;;;5026504;28;20263;-76
2022/02/02 07:41:05;;;;;;;;;;;1.10;61.70;;;;;;5013085;28;19925;-76
2022/02/02 07:43:36;;;;;;;;;;;1.20;61.60;;;;;;5014040;28;20378;-80
2022/02/02 07:46:05;;;;;;;;;;;1.30;61.50;;;;;;5007718;28;19975;-77
2022/02/02 07:48:35;;;;;;;;;;;1.50;61.40;;;;;;5013263;28;19921;-80
2022/02/02 07:51:03;;;;;;;;;;;1.60;61.10;;;;;;5012765;28;20397;-77
2022/02/02 07:53:37;;;;;;;;;;;1.80;60.90;;;;;;4995574;28;20186;-79
2022/02/02 07:56:09;;;;;;;;;;;1.90;60.30;;;;;;5013589;28;19921;-79
2022/02/02 07:58:39;;;;;;;;;;;1.90;60.80;;;;;;5012473;28;19921;-80
2022/02/02 08:01:06;;;;;;;;;;;2.00;60.80;;;;;;4996058;28;19921;-81
2022/02/02 08:03:38;;;;;;;;;;;2.10;60.40;;;;;;5028857;28;19927;-77
2022/02/02 08:06:06;;;;;;;;;;;2.20;60.80;;;;;;5011986;28;19921;-77
2022/02/02 08:08:35;;;;;;;;;;;2.30;60.30;;;;;;5029182;28;19916;-77
2022/02/02 08:11:06;;;;;;;;;;;2.50;60.60;;;;;;5027269;28;19943;-77
2022/02/02 08:13:42;;;;;;;;;;;2.60;59.90;;;;;;5012806;28;20289;-81
2022/02/02 08:16:16;;;;;;;;;;;2.70;60.40;;;;;;5014212;28;20385;-77
2022/02/02 08:18:46;;;;;;;;;;;2.80;60.30;;;;;;5025370;28;19944;-81
2022/02/02 08:21:12;;;;;;;;;;;3.00;60.30;;;;;;5016842;28;19920;-80
2022/02/02 08:23:38;;;;;;;;;;;3.00;59.60;;;;;;5026571;28;19918;-77
2022/02/02 08:26:10;;;;;;;;;;;3.20;59.40;;;;;;5010955;28;19928;-80
2022/02/02 08:28:37;;;;;;;;;;;3.40;59.70;;;;;;5012313;28;19928;-76
2022/02/02 08:31:03;;;;;;;;;;;3.60;59.50;;;;;;5033952;28;19960;-80
2022/02/02 08:33:34;;;;;;;;;;;3.80;59.60;;;;;;5023618;28;19956;-76
2022/02/02 08:36:02;;;;;;;;;;;3.90;59.40;;;;;;5013152;28;19922;-80
2022/02/02 08:41:00;;;;;;;;;;;4.20;59.40;;;;;;5011883;28;19922;-77
2022/02/02 08:43:31;;;;;;;;;;;4.20;59.10;;;;;;5014665;28;20033;-78
2022/02/02 08:46:04;;;;;;;;;;;4.40;58.60;;;;;;5011603;28;19921;-77
2022/02/02 08:48:30;;;;;;;;;;;4.50;59.40;;;;;;5011651;28;20339;-80
2022/02/02 08:51:10;;;;;;;;;;;4.60;59.00;;;;;;5010828;28;19917;-80
2022/02/02 08:53:49;;;;;;;;;;;4.70;59.00;;;;;;5011776;28;19917;-76
2022/02/02 08:58:47;;;;;;;;;;;5.10;58.10;;;;;;5027028;28;19927;-77
2022/02/02 09:01:23;;;;;;;;;;;5.40;58.30;;;;;;5012685;28;20314;-76
2022/02/02 09:06:34;;;;;;;;;;;6.20;56.50;;;;;;5021996;28;19975;-76
2022/02/02 09:09:25;;;;;;;;;;;6.60;55.90;;;;;;5011451;28;19929;-79
2022/02/02 09:20:22;;;;;;;;;;;7.70;55.00;;;;;;5013020;28;19944;-77
2022/02/02 09:36:42;;;;;;;;;;;7.70;56.00;;;;;;5014682;28;20021;-80
2022/02/02 09:39:12;;;;;;;;;;;7.70;55.70;;;;;;5016500;28;20255;-80
2022/02/02 09:41:46;;;;;;;;;;;7.70;55.10;;;;;;5030087;28;20293;-80
2022/02/02 09:44:17;;;;;;;;;;;7.80;55.50;;;;;;5014933;28;19945;-80
2022/02/02 09:51:53;;;;;;;;;;;7.70;55.40;;;;;;5020464;28;19967;-77
2022/02/02 10:03:00;;;;;;;;;;;7.90;54.30;;;;;;5028654;28;19959;-77
2022/02/02 10:08:07;;;;;;;;;;;8.40;52.90;;;;;;5012992;28;19922;-80
2022/02/02 10:10:51;;;;;;;;;;;8.70;52.60;;;;;;5030869;28;19921;-76
2022/02/02 10:15:47;;;;;;;;;;;9.40;51.30;;;;;;5014477;28;20380;-77
2022/02/02 10:18:18;;;;;;;;;;;9.70;51.30;;;;;;5014461;28;19917;-80
2022/02/02 10:20:44;;;;;;;;;;;9.80;51.30;;;;;;5014576;28;19929;-77
2022/02/02 10:23:11;;;;;;;;;;;10.30;50.60;;;;;;5019431;28;20408;-80
2022/02/02 10:25:40;;;;;;;;;;;10.60;50.30;;;;;;4988428;28;19971;-76
2022/02/02 10:28:28;;;;;;;;;;;10.70;49.80;;;;;;5030167;28;20008;-80
2022/02/02 10:31:14;;;;;;;;;;;10.90;49.30;;;;;;5041593;28;19921;-80
2022/02/02 10:33:40;;;;;;;;;;;10.80;49.50;;;;;;5038944;28;19925;-80
2022/02/02 10:36:25;;;;;;;;;;;11.10;49.10;;;;;;5013838;28;20011;-80
2022/02/02 10:39:13;;;;;;;;;;;11.50;48.30;;;;;;5030733;28;19923;-80
2022/02/02 10:42:00;;;;;;;;;;;11.80;46.70;;;;;;5005871;28;21548;-81
2022/02/02 10:44:46;;;;;;;;;;;11.70;47.00;;;;;;5013597;28;19921;-77
2022/02/02 10:50:29;;;;;;;;;;;11.80;46.40;;;;;;5018662;28;19976;-80
2022/02/02 10:56:03;;;;;;;;;;;12.40;45.50;;;;;;5014818;28;19925;-81
2022/02/02 11:06:40;;;;;;;;;;;14.00;43.00;;;;;;5013566;28;20420;-77
2022/02/02 11:09:29;;;;;;;;;;;14.00;43.30;;;;;;4998725;28;19949;-77
2022/02/02 11:11:56;;;;;;;;;;;14.50;43.00;;;;;;5030096;28;19993;-77
2022/02/02 11:14:35;;;;;;;;;;;16.30;39.90;;;;;;5023680;28;19944;-77
2022/02/02 11:17:39;;;;;;;;;;;17.40;37.90;;;;;;5017456;28;19928;-78
2022/02/02 11:20:07;;;;;;;;;;;16.80;38.30;;;;;;5012708;28;20428;-77
2022/02/02 11:23:11;;;;;;;;;;;16.50;39.70;;;;;;5012843;28;19921;-77
2022/02/02 11:25:59;;;;;;;;;;;16.20;39.80;;;;;;5030235;28;19928;-77
2022/02/02 11:28:29;;;;;;;;;;;16.20;39.90;;;;;;5031513;28;20429;-77
2022/02/02 11:31:15;;;;;;;;;;;16.30;40.20;;;;;;5027128;28;20305;-82
2022/02/02 11:34:01;;;;;;;;;;;16.60;39.90;;;;;;5012344;28;20380;-77
2022/02/02 11:36:52;;;;;;;;;;;16.70;38.60;;;;;;5012611;28;19922;-82
2022/02/02 11:39:44;;;;;;;;;;;17.00;38.40;;;;;;5011620;28;19917;-81
2022/02/02 11:46:04;;;;;;;;;;;16.70;38.70;;;;;;5014396;28;19921;-79
2022/02/02 11:49:14;;;;;;;;;;;16.10;38.70;;;;;;5024440;28;19932;-77
2022/02/02 11:51:50;;;;;;;;;;;16.30;38.60;;;;;;5011565;28;19928;-78
2022/02/02 11:57:33;;;;;;;;;;;15.70;39.00;;;;;;5013411;28;20362;-82
2022/02/02 12:03:29;;;;;;;;;;;16.00;38.80;;;;;;5013747;28;19921;-81
2022/02/02 12:06:42;;;;;;;;;;;16.00;39.20;;;;;;5000962;28;19921;-81
2022/02/02 12:09:20;;;;;;;;;;;15.90;39.30;;;;;;5028329;28;20354;-82
2022/02/02 12:58:00;;;;;;;;;;;21.60;29.70;;;;;;5010519;28;19921;-77
2022/02/02 13:00:39;;;;;;;;;;;23.40;26.40;;;;;;5028941;28;19995;-81
2022/02/02 13:03:06;;;;;;;;;;;24.00;25.80;;;;;;5028380;28;19920;-81
2022/02/02 13:05:52;;;;;;;;;;;25.90;24.30;;;;;;5009247;28;19928;-81
2022/02/02 13:08:19;;;;;;;;;;;28.50;22.40;;;;;;5022726;28;19927;-77
2022/02/02 13:10:45;;;;;;;;;;;30.00;21.20;;;;;;5008827;28;19921;-81
2022/02/02 13:13:22;;;;;;;;;;;30.70;20.60;;;;;;5031701;28;19925;-81
2022/02/02 13:16:21;;;;;;;;;;;31.80;19.90;;;;;;5030861;28;19932;-78
2022/02/02 13:18:51;;;;;;;;;;;31.90;19.60;;;;;;5028370;28;19964;-78
2022/02/02 13:21:25;;;;;;;;;;;32.00;19.30;;;;;;5018843;28;20008;-81
2022/02/02 13:24:03;;;;;;;;;;;32.20;18.60;;;;;;5015752;28;19925;-80
2022/02/02 13:29:10;;;;;;;;;;;33.20;17.60;;;;;;5030911;28;20310;-77
2022/02/02 13:32:20;;;;;;;;;;;32.80;16.80;;;;;;5032716;28;19928;-80
2022/02/02 13:35:13;;;;;;;;;;;32.40;16.50;;;;;;5030915;28;19921;-79
2022/02/02 13:54:00;;;;;;;;;;;32.90;16.80;;;;;;5014669;28;19928;-80
2022/02/02 14:02:10;;;;;;;;;;;33.40;16.40;;;;;;5014394;28;19930;-80
2022/02/02 14:09:53;;;;;;;;;;;34.30;14.30;;;;;;5024247;28;19925;-78
2022/02/02 14:31:26;;;;;;;;;;;32.30;16.00;;;;;;5025764;28;19936;-80
2022/02/02 14:34:11;;;;;;;;;;;32.10;15.70;;;;;;5022136;28;20409;-78
2022/02/02 14:36:39;;;;;;;;;;;30.30;17.30;;;;;;5002788;28;19925;-80
2022/02/02 14:39:21;;;;;;;;;;;29.30;18.00;;;;;;4997452;28;20446;-81
2022/02/02 14:44:37;;;;;;;;;;;27.40;19.30;;;;;;5013748;28;19969;-77
2022/02/02 14:47:08;;;;;;;;;;;26.80;20.00;;;;;;5013926;28;19926;-81
2022/02/02 15:25:08;;;;;;;;;;;17.30;23.10;;;;;;5017677;28;19932;-79
2022/02/02 15:27:33;;;;;;;;;;;16.90;23.90;;;;;;5021380;28;19928;-79
2022/02/02 15:30:12;;;;;;;;;;;16.50;24.20;;;;;;5014370;28;19949;-78
2022/02/02 15:32:44;;;;;;;;;;;16.10;24.00;;;;;;5015590;28;20297;-78
2022/02/02 15:35:11;;;;;;;;;;;15.80;23.90;;;;;;5029891;28;20324;-82
2022/02/02 15:40:26;;;;;;;;;;;15.20;24.70;;;;;;5014410;28;19981;-81
2022/02/02 15:43:07;;;;;;;;;;;14.80;24.10;;;;;;5013103;28;19925;-81
2022/02/02 15:58:01;;;;;;;;;;;13.60;26.00;;;;;;5013253;28;19928;-79
2022/02/02 16:03:03;;;;;;;;;;;13.20;26.60;;;;;;5012895;28;20012;-81
2022/02/02 16:05:38;;;;;;;;;;;12.90;26.70;;;;;;5014279;28;19952;-80
2022/02/02 16:08:07;;;;;;;;;;;12.70;27.00;;;;;;5013956;28;19914;-81
2022/02/02 16:10:48;;;;;;;;;;;12.50;27.00;;;;;;4996928;28;20180;-81
2022/02/02 16:13:35;;;;;;;;;;;12.40;27.40;;;;;;5014235;28;19914;-82
2022/02/02 16:18:59;;;;;;;;;;;12.00;27.80;;;;;;5012797;28;19936;-79
2022/02/02 16:37:57;;;;;;;;;;;10.90;29.80;;;;;;4992510;28;19929;-78
2022/02/02 16:40:31;;;;;;;;;;;10.70;30.30;;;;;;4994452;28;19928;-79
2022/02/02 16:43:15;;;;;;;;;;;10.50;30.30;;;;;;4996877;28;19953;-79
2022/02/02 16:45:43;;;;;;;;;;;10.40;31.00;;;;;;5002961;28;19921;-80
2022/02/02 16:48:10;;;;;;;;;;;10.20;31.20;;;;;;5006511;28;19924;-79
2022/02/02 16:50:56;;;;;;;;;;;10.10;31.40;;;;;;4998554;28;20385;-80
2022/02/02 16:53:41;;;;;;;;;;;10.00;31.40;;;;;;5003577;28;19922;-79
2022/02/02 16:56:16;;;;;;;;;;;9.80;31.60;;;;;;5010891;28;20363;-79
2022/02/02 17:27:55;;;;;;;;;;;8.60;34.00;;;;;;5013422;28;20381;-82
2022/02/02 17:34:35;;;;;;;;;;;8.40;34.70;;;;;;4997160;28;20322;-79
2022/02/02 17:39:43;;;;;;;;;;;8.20;35.00;;;;;;4996275;28;19930;-79
2022/02/02 17:45:23;;;;;;;;;;;7.90;36.20;;;;;;5009230;28;20309;-82
2022/02/02 18:20:02;;;;;;;;;;;6.30;39.10;;;;;;5031073;28;20012;-81
2022/02/02 18:25:30;;;;;;;;;;;6.10;40.10;;;;;;5018525;28;20411;-78
2022/02/02 18:30:45;;;;;;;;;;;5.90;40.50;;;;;;5014707;28;19921;-78
2022/02/02 18:33:22;;;;;;;;;;;5.80;40.00;;;;;;5025119;28;19975;-81
2022/02/02 18:36:01;;;;;;;;;;;5.80;40.70;;;;;;5011163;28;19921;-78
2022/02/02 18:46:35;;;;;;;;;;;5.70;42.10;;;;;;5030741;28;20016;-81
2022/02/02 18:54:47;;;;;;;;;;;5.70;42.00;;;;;;5014292;28;20248;-81
2022/02/02 19:08:19;;;;;;;;;;;5.60;42.80;;;;;;5028244;28;19921;-81
2022/02/02 20:02:49;;;;;;;;;;;4.90;44.80;;;;;;5015598;28;19975;-81
2022/02/02 20:05:39;;;;;;;;;;;4.90;44.70;;;;;;5029733;28;19925;-81
2022/02/02 20:10:41;;;;;;;;;;;4.80;45.10;;;;;;5012283;28;19968;-78
2022/02/02 20:13:07;;;;;;;;;;;4.70;45.30;;;;;;5012481;28;19921;-78
2022/02/02 20:15:38;;;;;;;;;;;4.60;45.50;;;;;;5019974;28;19924;-78
2022/02/02 20:18:05;;;;;;;;;;;4.60;45.80;;;;;;5029378;28;19913;-78
2022/02/02 20:20:34;;;;;;;;;;;4.50;45.30;;;;;;5004856;28;19917;-81
2022/02/02 20:23:02;;;;;;;;;;;4.40;45.40;;;;;;5011350;28;19989;-78
2022/02/02 20:25:28;;;;;;;;;;;4.40;45.80;;;;;;5012405;28;19917;-77
2022/02/02 20:28:04;;;;;;;;;;;4.30;46.10;;;;;;5017882;28;19921;-78
2022/02/02 20:30:30;;;;;;;;;;;4.40;46.60;;;;;;5019151;28;20015;-82
2022/02/02 20:32:57;;;;;;;;;;;4.30;45.80;;;;;;5023386;28;19913;-81
2022/02/02 20:35:23;;;;;;;;;;;4.40;46.40;;;;;;5013215;28;19921;-81
2022/02/02 20:37:49;;;;;;;;;;;4.30;46.00;;;;;;5029067;28;20325;-81
2022/02/02 20:40:15;;;;;;;;;;;4.40;45.80;;;;;;5017797;28;20374;-78
2022/02/02 21:07:04;;;;;;;;;;;4.40;48.60;;;;;;5012390;28;19961;-80
2022/02/02 21:09:52;;;;;;;;;;;4.50;48.50;;;;;;5020411;28;19921;-81
2022/02/02 21:15:11;;;;;;;;;;;4.50;48.00;;;;;;5012458;28;19987;-79
2022/02/02 21:17:39;;;;;;;;;;;4.40;49.40;;;;;;5013134;28;19917;-79
2022/02/02 21:20:13;;;;;;;;;;;4.40;50.10;;;;;;5012020;28;19922;-80
2022/02/02 21:23:03;;;;;;;;;;;4.40;50.40;;;;;;5012022;28;19913;-77
2022/02/02 21:25:41;;;;;;;;;;;4.40;50.00;;;;;;4989910;28;20445;-79
2022/02/02 21:28:08;;;;;;;;;;;4.40;49.10;;;;;;5015914;28;19925;-81
2022/02/02 21:30:37;;;;;;;;;;;4.40;48.50;;;;;;5015709;28;19917;-81
2022/02/02 21:33:03;;;;;;;;;;;4.40;48.10;;;;;;5026024;28;20460;-81
2022/02/02 21:35:30;;;;;;;;;;;4.50;48.40;;;;;;5032077;28;20309;-81
2022/02/02 21:38:06;;;;;;;;;;;4.70;48.20;;;;;;5005464;28;19925;-78
2022/02/02 21:40:33;;;;;;;;;;;4.70;47.70;;;;;;5015533;28;20405;-80
2022/02/02 21:42:59;;;;;;;;;;;4.70;47.40;;;;;;5027731;28;19917;-78
2022/02/02 21:45:28;;;;;;;;;;;4.70;47.20;;;;;;5031477;28;19928;-78
2022/02/02 21:47:54;;;;;;;;;;;4.70;47.30;;;;;;5022121;28;19952;-81
2022/02/02 21:50:20;;;;;;;;;;;4.60;47.30;;;;;;4998542;28;19921;-79
2022/02/02 21:52:48;;;;;;;;;;;4.60;47.30;;;;;;5027146;28;19944;-78
2022/02/02 21:55:15;;;;;;;;;;;4.50;47.30;;;;;;5025706;28;19929;-78
2022/02/02 21:57:41;;;;;;;;;;;4.50;47.30;;;;;;5013241;28;19971;-80
2022/02/02 22:00:09;;;;;;;;;;;4.50;47.50;;;;;;5007513;28;20374;-78
2022/02/02 22:02:36;;;;;;;;;;;4.40;47.50;;;;;;5018586;28;19921;-80
2022/02/02 22:05:04;;;;;;;;;;;4.30;47.60;;;;;;5030876;28;20370;-81
2022/02/02 22:07:30;;;;;;;;;;;4.40;47.50;;;;;;5030526;28;19967;-81
2022/02/02 22:09:58;;;;;;;;;;;4.30;47.10;;;;;;5018621;28;19971;-78
2022/02/02 22:12:25;;;;;;;;;;;4.20;47.80;;;;;;5014612;28;19925;-81
2022/02/02 22:14:52;;;;;;;;;;;4.10;47.70;;;;;;5028945;28;19921;-81
2022/02/02 22:17:20;;;;;;;;;;;4.10;48.00;;;;;;5028582;28;20370;-80
2022/02/02 22:19:51;;;;;;;;;;;4.00;48.10;;;;;;5028066;28;19921;-81
2022/02/02 22:22:17;;;;;;;;;;;3.90;47.60;;;;;;5026668;28;20043;-81
2022/02/02 22:24:43;;;;;;;;;;;3.90;48.20;;;;;;5017642;28;19922;-80
2022/02/02 22:27:09;;;;;;;;;;;3.80;48.50;;;;;;5030734;28;19992;-81
2022/02/02 22:29:35;;;;;;;;;;;3.70;48.50;;;;;;5021261;28;20382;-77
2022/02/02 22:32:01;;;;;;;;;;;3.70;48.60;;;;;;5019245;28;19920;-77
2022/02/02 22:34:27;;;;;;;;;;;3.60;48.50;;;;;;5023274;28;19928;-77
2022/02/02 22:36:56;;;;;;;;;;;3.50;50.50;;;;;;5018550;28;20374;-80
2022/02/02 22:39:22;;;;;;;;;;;3.50;51.80;;;;;;4997852;28;19968;-78
2022/02/02 22:41:49;;;;;;;;;;;3.40;50.60;;;;;;5025144;28;19925;-81
2022/02/02 22:44:16;;;;;;;;;;;3.40;50.00;;;;;;5013944;28;19964;-78
2022/02/02 22:46:43;;;;;;;;;;;3.40;49.20;;;;;;5020575;28;19967;-78
2022/02/02 22:49:10;;;;;;;;;;;3.40;49.40;;;;;;5013953;28;20358;-78
2022/02/02 22:53:56;;;;;;;67.73;26.53;;;3.30;49.30;;;;;;5024908;27;1624818;-76
2022/02/02 22:56:22;;;;;;;68.88;28.50;;;3.30;49.50;;;;;;5046192;28;20045;-78
2022/02/02 22:58:50;;;;;;;72.00;27.77;;;3.30;50.50;;;;;;5051883;28;20064;-79
2022/02/02 23:01:18;;;;;;;75.15;29.65;;;3.20;50.50;;;;;;5049490;28;20428;-76
2022/02/02 23:03:47;;;;;;;53.28;22.48;;;3.10;50.80;;;;;;5064657;28;20024;-77
2022/02/02 23:06:13;;;;;;;56.60;23.80;;;3.10;50.90;;;;;;5062686;28;20040;-75
2022/02/02 23:08:40;;;;;;;51.22;22.90;;;3.10;51.20;;;;;;5065908;28;20106;-80
2022/02/02 23:11:07;;;;;;;61.20;25.02;;;3.00;51.20;;;;;;5049883;28;20029;-80
2022/02/02 23:13:33;;;;;;;59.08;23.83;;;3.00;51.20;;;;;;5065642;28;20409;-79
2022/02/02 23:16:06;;;;;;;43.83;18.27;;;2.90;51.00;;;;;;5049629;28;20036;-80
2022/02/02 23:18:36;;;;;;;37.58;17.85;;;2.90;51.80;;;;;;5046988;28;20572;-80
2022/02/02 23:21:07;;;;;;;32.70;15.05;;;2.70;51.40;;;;;;5066713;28;20501;-79
2022/02/02 23:23:57;;;;;;;29.77;12.43;;;2.70;52.10;;;;;;5065800;28;20028;-80
2022/02/02 23:26:24;;;;;;;21.70;10.35;;;2.60;52.30;;;;;;5066833;28;20076;-76
2022/02/02 23:28:57;;;;;;;20.30;9.52;;;2.50;52.50;;;;;;5065409;28;20037;-78
2022/02/02 23:31:25;;;;;;;25.05;9.73;;;2.40;52.80;;;;;;5048899;28;20155;-78
2022/02/02 23:33:52;;;;;;;24.63;10.95;;;2.30;53.00;;;;;;5060931;28;20059;-76
2022/02/02 23:36:20;;;;;;;;;;;2.30;53.20;;;;;;5065886;28;20090;-78
2022/02/02 23:38:46;;;;;;;28.45;12.57;;;2.20;52.40;;;;;;5063970;28;19924;-79
2022/02/02 23:43:57;;;;;;;31.73;14.90;;;2.20;53.00;;;;;;5047632;28;20401;-75
2022/02/02 23:47:00;;;;;;;32.00;15.65;;;2.10;53.40;;;;;;5063833;28;20033;-74
2022/02/02 23:55:11;;;;;;;34.13;14.80;;;1.90;53.90;;;;;;5064785;28;20036;-79
